CSS1181 ZYTX-ZYCC
Flight info
| Callsign | CSS1181 |
|---|---|
| Flight time | 0h 46m |
| Altitude | 29100 |
| Route | LEM71D LEMOT LEMOT7A |
| Aircraft | B752/M-SDE2E3FGHIJ3J4J7RWXY/LB1 |
Departure
| Time | 2026-04-18 09:32 |
|---|---|
| Airport | Shenyang Taoxian International Airport (ZYTX) |
Arrival
| Time | 2026-04-18 10:18 |
|---|---|
| Airport | Changchun Longjia International Airport (ZYCC) |
| Time | Latitude | Longitude | Altitude | Speed | Heading |
|---|---|---|---|---|---|
| 2026-04-18 08:56 | 41.64076 | 123.49158 | 208 ft | 0 kts | 137° |
| 2026-04-18 09:20 | 41.64043 | 123.49198 | 208 ft | 9 kts | 131° |
| 2026-04-18 09:21 | 41.64076 | 123.49255 | 208 ft | 11 kts | 354° |
| 2026-04-18 09:21 | 41.64162 | 123.49197 | 208 ft | 16 kts | 318° |
| 2026-04-18 09:21 | 41.64223 | 123.49125 | 208 ft | 10 kts | 322° |
| 2026-04-18 09:21 | 41.64296 | 123.49155 | 208 ft | 14 kts | 45° |
| 2026-04-18 09:22 | 41.64375 | 123.49271 | 208 ft | 18 kts | 48° |
| 2026-04-18 09:22 | 41.64469 | 123.49415 | 208 ft | 17 kts | 48° |
| 2026-04-18 09:22 | 41.64546 | 123.49530 | 208 ft | 10 kts | 48° |
| 2026-04-18 09:22 | 41.64592 | 123.49558 | 208 ft | 8 kts | 345° |
| 2026-04-18 09:23 | 41.64635 | 123.49519 | 208 ft | 0 kts | 319° |
| 2026-04-18 09:30 | 41.64638 | 123.49516 | 208 ft | 3 kts | 319° |
| 2026-04-18 09:30 | 41.64680 | 123.49468 | 208 ft | 10 kts | 317° |
| 2026-04-18 09:31 | 41.64675 | 123.49366 | 208 ft | 14 kts | 229° |
| 2026-04-18 09:31 | 41.64650 | 123.49326 | 208 ft | 16 kts | 229° |
| 2026-04-18 09:31 | 41.64371 | 123.48906 | 208 ft | 105 kts | 229° |
| 2026-04-18 09:31 | 41.63712 | 123.47908 | 234 ft | 178 kts | 229° |
| 2026-04-18 09:32 | 41.62810 | 123.46449 | 445 ft | 231 kts | 231° |
| 2026-04-18 09:32 | 41.61693 | 123.44645 | 546 ft | 251 kts | 229° |
| 2026-04-18 09:32 | 41.60616 | 123.43014 | 915 ft | 214 kts | 227° |
| 2026-04-18 09:32 | 41.59705 | 123.41668 | 1283 ft | 183 kts | 227° |
| 2026-04-18 09:33 | 41.58857 | 123.40434 | 1279 ft | 180 kts | 227° |
| 2026-04-18 09:33 | 41.57969 | 123.39159 | 1318 ft | 199 kts | 226° |
| 2026-04-18 09:33 | 41.56734 | 123.38076 | 1988 ft | 229 kts | 195° |
| 2026-04-18 09:33 | 41.55132 | 123.38119 | 3079 ft | 250 kts | 165° |
| 2026-04-18 09:34 | 41.53563 | 123.39208 | 4284 ft | 266 kts | 152° |
| 2026-04-18 09:34 | 41.51960 | 123.40444 | 5546 ft | 276 kts | 154° |
| 2026-04-18 09:34 | 41.50283 | 123.41684 | 6812 ft | 285 kts | 155° |
| 2026-04-18 09:34 | 41.48539 | 123.42959 | 8085 ft | 294 kts | 154° |
| 2026-04-18 09:35 | 41.46921 | 123.44653 | 9287 ft | 309 kts | 131° |
| 2026-04-18 09:35 | 41.45890 | 123.47145 | 10513 ft | 319 kts | 112° |
| 2026-04-18 09:35 | 41.45063 | 123.49942 | 11444 ft | 339 kts | 112° |
| 2026-04-18 09:35 | 41.44175 | 123.52933 | 12309 ft | 360 kts | 112° |
| 2026-04-18 09:36 | 41.43243 | 123.56110 | 13133 ft | 381 kts | 112° |
| 2026-04-18 09:36 | 41.42311 | 123.59482 | 14029 ft | 399 kts | 107° |
| 2026-04-18 09:36 | 41.41781 | 123.63147 | 15139 ft | 409 kts | 99° |
| 2026-04-18 09:36 | 41.41309 | 123.66901 | 16252 ft | 418 kts | 100° |
| 2026-04-18 09:37 | 41.40832 | 123.70734 | 17338 ft | 428 kts | 100° |
| 2026-04-18 09:37 | 41.40353 | 123.74603 | 18696 ft | 429 kts | 100° |
| 2026-04-18 09:37 | 41.39876 | 123.78452 | 20228 ft | 425 kts | 100° |
| 2026-04-18 09:37 | 41.39394 | 123.82334 | 21641 ft | 424 kts | 99° |
| 2026-04-18 09:38 | 41.38920 | 123.86150 | 22991 ft | 422 kts | 99° |
| 2026-04-18 09:38 | 41.38459 | 123.89926 | 24267 ft | 419 kts | 97° |
| 2026-04-18 09:38 | 41.38407 | 123.93756 | 25467 ft | 415 kts | 83° |
| 2026-04-18 09:38 | 41.38767 | 123.97529 | 26534 ft | 413 kts | 81° |
| 2026-04-18 09:39 | 41.38776 | 123.97626 | 26561 ft | 413 kts | 81° |
| 2026-04-18 09:39 | 41.39146 | 124.01365 | 27562 ft | 412 kts | 81° |
| 2026-04-18 09:39 | 41.39526 | 124.05133 | 28510 ft | 410 kts | 81° |
| 2026-04-18 09:39 | 41.39910 | 124.08898 | 29111 ft | 414 kts | 81° |
| 2026-04-18 09:40 | 41.40680 | 124.16426 | 29084 ft | 404 kts | 80° |
| 2026-04-18 09:40 | 41.41802 | 124.23679 | 29101 ft | 401 kts | 63° |
| 2026-04-18 09:41 | 41.43190 | 124.26872 | 29103 ft | 395 kts | 47° |
| 2026-04-18 09:41 | 41.45110 | 124.29424 | 29100 ft | 386 kts | 31° |
| 2026-04-18 09:41 | 41.49597 | 124.33171 | 29081 ft | 382 kts | 25° |
| 2026-04-18 09:42 | 41.54192 | 124.36749 | 29081 ft | 381 kts | 24° |
| 2026-04-18 09:42 | 41.58788 | 124.40263 | 29075 ft | 381 kts | 24° |
| 2026-04-18 09:43 | 41.63362 | 124.43742 | 29069 ft | 380 kts | 24° |
| 2026-04-18 09:43 | 41.67959 | 124.47240 | 29075 ft | 381 kts | 24° |
| 2026-04-18 09:44 | 41.72568 | 124.50752 | 29080 ft | 380 kts | 24° |
| 2026-04-18 09:44 | 41.77171 | 124.54263 | 29075 ft | 380 kts | 24° |
| 2026-04-18 09:45 | 41.81745 | 124.57756 | 29070 ft | 380 kts | 24° |
| 2026-04-18 09:45 | 41.86333 | 124.61259 | 29066 ft | 380 kts | 24° |
| 2026-04-18 09:46 | 41.90929 | 124.64774 | 29063 ft | 380 kts | 24° |
| 2026-04-18 09:46 | 41.95525 | 124.68258 | 29054 ft | 379 kts | 22° |
| 2026-04-18 09:47 | 42.00216 | 124.71456 | 29056 ft | 379 kts | 21° |
| 2026-04-18 09:47 | 42.04923 | 124.74680 | 29054 ft | 379 kts | 21° |
| 2026-04-18 09:48 | 42.09577 | 124.77876 | 29051 ft | 377 kts | 21° |
| 2026-04-18 09:48 | 42.14247 | 124.81088 | 29057 ft | 377 kts | 21° |
| 2026-04-18 09:49 | 42.18949 | 124.84323 | 29058 ft | 378 kts | 21° |
| 2026-04-18 09:49 | 42.23625 | 124.87547 | 29060 ft | 378 kts | 21° |
| 2026-04-18 09:50 | 42.28287 | 124.90765 | 29062 ft | 379 kts | 21° |
| 2026-04-18 09:50 | 42.32990 | 124.94018 | 29065 ft | 378 kts | 21° |
| 2026-04-18 09:51 | 42.37652 | 124.97247 | 29066 ft | 377 kts | 21° |
| 2026-04-18 09:51 | 42.42315 | 125.00483 | 29066 ft | 377 kts | 21° |
| 2026-04-18 09:52 | 42.46971 | 125.03718 | 29067 ft | 378 kts | 21° |
| 2026-04-18 09:52 | 42.49343 | 125.05366 | 28722 ft | 387 kts | 21° |
| 2026-04-18 09:52 | 42.51735 | 125.07031 | 28192 ft | 387 kts | 21° |
| 2026-04-18 09:53 | 42.54094 | 125.08680 | 27719 ft | 382 kts | 21° |
| 2026-04-18 09:53 | 42.56443 | 125.10320 | 27287 ft | 378 kts | 21° |
| 2026-04-18 09:53 | 42.58791 | 125.11958 | 26886 ft | 381 kts | 21° |
| 2026-04-18 09:53 | 42.61150 | 125.13605 | 26492 ft | 384 kts | 21° |
| 2026-04-18 09:54 | 42.63552 | 125.14971 | 26089 ft | 376 kts | 9° |
| 2026-04-18 09:54 | 42.66126 | 125.15589 | 25688 ft | 371 kts | 1° |
| 2026-04-18 09:54 | 42.68660 | 125.16028 | 25283 ft | 371 kts | 1° |
| 2026-04-18 09:54 | 42.71240 | 125.16476 | 24873 ft | 371 kts | 1° |
| 2026-04-18 09:55 | 42.73792 | 125.16908 | 24476 ft | 372 kts | 0° |
| 2026-04-18 09:55 | 42.76366 | 125.17340 | 24083 ft | 373 kts | 0° |
| 2026-04-18 09:55 | 42.78943 | 125.17847 | 23692 ft | 378 kts | 6° |
| 2026-04-18 09:55 | 42.81437 | 125.19102 | 23315 ft | 390 kts | 22° |
| 2026-04-18 09:56 | 42.83682 | 125.21249 | 22867 ft | 403 kts | 37° |
| 2026-04-18 09:56 | 42.85491 | 125.24130 | 22399 ft | 410 kts | 52° |
| 2026-04-18 09:56 | 42.87006 | 125.27427 | 21936 ft | 411 kts | 53° |
| 2026-04-18 09:56 | 42.88541 | 125.30691 | 21487 ft | 411 kts | 52° |
| 2026-04-18 09:57 | 42.90132 | 125.33933 | 21073 ft | 410 kts | 47° |
| 2026-04-18 09:57 | 42.92097 | 125.36684 | 20655 ft | 401 kts | 32° |
| 2026-04-18 09:57 | 42.94413 | 125.38671 | 20227 ft | 394 kts | 22° |
| 2026-04-18 09:57 | 42.96836 | 125.40416 | 19811 ft | 396 kts | 22° |
| 2026-04-18 09:58 | 42.99293 | 125.42176 | 19378 ft | 396 kts | 21° |
| 2026-04-18 09:58 | 43.01691 | 125.43880 | 18945 ft | 393 kts | 21° |
| 2026-04-18 09:58 | 43.04102 | 125.45584 | 18524 ft | 390 kts | 21° |
| 2026-04-18 09:58 | 43.06529 | 125.47295 | 18111 ft | 387 kts | 21° |
| 2026-04-18 09:59 | 43.08913 | 125.48975 | 17706 ft | 384 kts | 21° |
| 2026-04-18 09:59 | 43.11273 | 125.50637 | 17306 ft | 383 kts | 21° |
| 2026-04-18 09:59 | 43.13628 | 125.52296 | 16892 ft | 380 kts | 21° |
| 2026-04-18 10:00 | 43.18289 | 125.55583 | 16110 ft | 376 kts | 21° |
| 2026-04-18 10:00 | 43.20610 | 125.57220 | 15713 ft | 374 kts | 21° |
| 2026-04-18 10:00 | 43.22922 | 125.58855 | 15306 ft | 372 kts | 21° |
| 2026-04-18 10:00 | 43.25204 | 125.60468 | 14914 ft | 369 kts | 21° |
| 2026-04-18 10:01 | 43.27484 | 125.62082 | 14533 ft | 367 kts | 21° |
| 2026-04-18 10:01 | 43.29748 | 125.63685 | 14137 ft | 366 kts | 21° |
| 2026-04-18 10:01 | 43.31988 | 125.65273 | 13747 ft | 364 kts | 21° |
| 2026-04-18 10:01 | 43.34229 | 125.66863 | 13361 ft | 362 kts | 21° |
| 2026-04-18 10:02 | 43.36473 | 125.68404 | 12977 ft | 357 kts | 17° |
| 2026-04-18 10:02 | 43.38809 | 125.69255 | 12599 ft | 345 kts | 0° |
| 2026-04-18 10:02 | 43.41159 | 125.69140 | 12241 ft | 333 kts | 343° |
| 2026-04-18 10:02 | 43.43371 | 125.68237 | 11907 ft | 328 kts | 336° |
| 2026-04-18 10:03 | 43.45497 | 125.67200 | 11577 ft | 328 kts | 335° |
| 2026-04-18 10:03 | 43.47624 | 125.66111 | 11259 ft | 326 kts | 334° |
| 2026-04-18 10:03 | 43.49739 | 125.64992 | 10958 ft | 325 kts | 334° |
| 2026-04-18 10:03 | 43.51854 | 125.63850 | 10645 ft | 325 kts | 334° |
| 2026-04-18 10:04 | 43.53950 | 125.62706 | 10340 ft | 324 kts | 334° |
| 2026-04-18 10:04 | 43.56001 | 125.61583 | 10285 ft | 307 kts | 333° |
| 2026-04-18 10:04 | 43.57912 | 125.60534 | 10216 ft | 288 kts | 333° |
| 2026-04-18 10:04 | 43.59716 | 125.59538 | 10175 ft | 270 kts | 332° |
| 2026-04-18 10:05 | 43.61405 | 125.58604 | 10161 ft | 256 kts | 332° |
| 2026-04-18 10:05 | 43.63067 | 125.57675 | 10169 ft | 260 kts | 332° |
| 2026-04-18 10:05 | 43.64807 | 125.56857 | 10168 ft | 268 kts | 345° |
| 2026-04-18 10:05 | 43.66709 | 125.57042 | 10108 ft | 286 kts | 10° |
| 2026-04-18 10:06 | 43.68485 | 125.58376 | 9700 ft | 305 kts | 36° |
| 2026-04-18 10:06 | 43.69881 | 125.60617 | 9288 ft | 307 kts | 49° |
| 2026-04-18 10:06 | 43.71199 | 125.62923 | 8932 ft | 302 kts | 47° |
| 2026-04-18 10:06 | 43.72514 | 125.65115 | 8675 ft | 295 kts | 47° |
| 2026-04-18 10:07 | 43.73828 | 125.67268 | 8362 ft | 290 kts | 46° |
| 2026-04-18 10:07 | 43.75119 | 125.69364 | 8357 ft | 286 kts | 46° |
| 2026-04-18 10:07 | 43.76445 | 125.71502 | 8375 ft | 295 kts | 46° |
| 2026-04-18 10:07 | 43.77770 | 125.73637 | 8371 ft | 294 kts | 46° |
| 2026-04-18 10:08 | 43.79101 | 125.75782 | 8369 ft | 293 kts | 46° |
| 2026-04-18 10:08 | 43.80438 | 125.77914 | 8356 ft | 293 kts | 43° |
| 2026-04-18 10:08 | 43.82045 | 125.79506 | 8297 ft | 283 kts | 17° |
| 2026-04-18 10:08 | 43.83946 | 125.79988 | 8075 ft | 277 kts | 354° |
| 2026-04-18 10:09 | 43.85862 | 125.79843 | 7787 ft | 273 kts | 352° |
| 2026-04-18 10:09 | 43.87755 | 125.79664 | 7447 ft | 272 kts | 351° |
| 2026-04-18 10:09 | 43.89642 | 125.79450 | 6955 ft | 275 kts | 351° |
| 2026-04-18 10:09 | 43.91545 | 125.79348 | 6466 ft | 280 kts | 5° |
| 2026-04-18 10:10 | 43.93329 | 125.80304 | 6386 ft | 272 kts | 34° |
| 2026-04-18 10:10 | 43.94697 | 125.82104 | 6230 ft | 278 kts | 47° |
| 2026-04-18 10:10 | 43.96013 | 125.84098 | 5992 ft | 281 kts | 47° |
| 2026-04-18 10:10 | 43.97314 | 125.86115 | 5689 ft | 277 kts | 48° |
| 2026-04-18 10:11 | 43.98561 | 125.88088 | 5424 ft | 272 kts | 49° |
| 2026-04-18 10:11 | 43.99780 | 125.90035 | 5263 ft | 262 kts | 49° |
| 2026-04-18 10:11 | 44.00951 | 125.91917 | 5135 ft | 253 kts | 49° |
| 2026-04-18 10:11 | 44.02090 | 125.93755 | 4775 ft | 254 kts | 50° |
| 2026-04-18 10:12 | 44.03364 | 125.95476 | 4399 ft | 254 kts | 32° |
| 2026-04-18 10:12 | 44.05020 | 125.96225 | 4048 ft | 254 kts | 2° |
| 2026-04-18 10:12 | 44.06670 | 125.95768 | 3652 ft | 238 kts | 332° |
| 2026-04-18 10:12 | 44.07976 | 125.94469 | 3286 ft | 225 kts | 321° |
| 2026-04-18 10:13 | 44.09172 | 125.93133 | 2903 ft | 217 kts | 322° |
| 2026-04-18 10:13 | 44.10286 | 125.91866 | 2874 ft | 197 kts | 321° |
| 2026-04-18 10:13 | 44.11225 | 125.90630 | 2919 ft | 174 kts | 300° |
| 2026-04-18 10:13 | 44.11438 | 125.89089 | 2975 ft | 163 kts | 254° |
| 2026-04-18 10:14 | 44.10926 | 125.87657 | 3064 ft | 171 kts | 235° |
| 2026-04-18 10:14 | 44.10267 | 125.86285 | 3062 ft | 169 kts | 233° |
| 2026-04-18 10:14 | 44.09575 | 125.84963 | 3055 ft | 165 kts | 230° |
| 2026-04-18 10:14 | 44.08906 | 125.83755 | 3018 ft | 150 kts | 229° |
| 2026-04-18 10:15 | 44.08282 | 125.82668 | 2954 ft | 138 kts | 228° |
| 2026-04-18 10:15 | 44.07695 | 125.81667 | 2853 ft | 135 kts | 227° |
| 2026-04-18 10:15 | 44.07083 | 125.80643 | 2670 ft | 136 kts | 227° |
| 2026-04-18 10:15 | 44.06470 | 125.79627 | 2472 ft | 137 kts | 227° |
| 2026-04-18 10:16 | 44.05865 | 125.78630 | 2290 ft | 136 kts | 226° |
| 2026-04-18 10:16 | 44.05254 | 125.77630 | 2100 ft | 135 kts | 226° |
| 2026-04-18 10:16 | 44.04641 | 125.76633 | 1914 ft | 135 kts | 227° |
| 2026-04-18 10:16 | 44.04031 | 125.75642 | 1751 ft | 131 kts | 228° |
| 2026-04-18 10:17 | 44.03436 | 125.74677 | 1585 ft | 131 kts | 227° |
| 2026-04-18 10:17 | 44.02849 | 125.73727 | 1401 ft | 131 kts | 226° |
| 2026-04-18 10:17 | 44.02252 | 125.72765 | 1206 ft | 132 kts | 226° |
| 2026-04-18 10:17 | 44.01650 | 125.71819 | 1062 ft | 130 kts | 227° |
| 2026-04-18 10:18 | 44.01052 | 125.70862 | 935 ft | 133 kts | 230° |
| 2026-04-18 10:18 | 44.00470 | 125.69868 | 767 ft | 130 kts | 227° |
| 2026-04-18 10:18 | 43.99916 | 125.68985 | 717 ft | 106 kts | 230° |
| 2026-04-18 10:18 | 43.99581 | 125.68438 | 717 ft | 24 kts | 230° |
| 2026-04-18 10:19 | 43.99460 | 125.68242 | 717 ft | 28 kts | 229° |
| 2026-04-18 10:19 | 43.99330 | 125.68069 | 717 ft | 27 kts | 211° |
| 2026-04-18 10:19 | 43.99157 | 125.67964 | 717 ft | 20 kts | 200° |
| 2026-04-18 10:19 | 43.99080 | 125.67973 | 717 ft | 13 kts | 144° |
| 2026-04-18 10:20 | 43.99001 | 125.68065 | 717 ft | 9 kts | 140° |
| 2026-04-18 10:20 | 43.98980 | 125.68111 | 717 ft | 7 kts | 98° |
| 2026-04-18 10:20 | 43.99010 | 125.68186 | 717 ft | 11 kts | 49° |
| 2026-04-18 10:20 | 43.99066 | 125.68277 | 717 ft | 8 kts | 50° |
| 2026-04-18 10:21 | 43.99112 | 125.68350 | 717 ft | 12 kts | 50° |
| 2026-04-18 10:21 | 43.99137 | 125.68411 | 717 ft | 8 kts | 86° |
| 2026-04-18 10:21 | 43.99103 | 125.68477 | 717 ft | 4 kts | 141° |
| 2026-04-18 10:21 | 43.99092 | 125.68491 | 717 ft | 0 kts | 139° |